createdAt,value
2023-05-10T00:03:20.348Z,48.00
2023-05-10T00:08:19.179Z,48.04
2023-05-10T00:13:17.944Z,48.27
2023-05-10T00:18:16.735Z,48.79
2023-05-10T00:23:15.794Z,48.47
2023-05-10T00:28:14.724Z,48.32
2023-05-10T00:33:13.616Z,48.54
2023-05-10T00:38:12.430Z,48.93
2023-05-10T00:43:11.283Z,48.73
2023-05-10T00:48:10.370Z,48.65
2023-05-10T00:53:10.286Z,48.76
2023-05-10T00:58:10.176Z,48.85
2023-05-10T01:03:09.101Z,48.69
2023-05-10T01:08:09.841Z,49.00
2023-05-10T01:13:08.899Z,48.96
2023-05-10T01:18:09.763Z,49.04
2023-05-10T01:23:47.546Z,49.11
2023-05-10T01:29:00.549Z,49.73
2023-05-10T01:34:07.351Z,50.14
2023-05-10T01:39:39.323Z,50.29
2023-05-10T01:44:47.590Z,50.54
2023-05-10T01:49:53.071Z,50.23
2023-05-10T01:55:04.068Z,50.86
2023-05-10T02:00:05.688Z,51.01
2023-05-10T02:05:15.448Z,51.75
2023-05-10T02:10:15.733Z,51.88
2023-05-10T02:15:20.228Z,52.22
2023-05-10T02:20:20.407Z,52.41
2023-05-10T02:25:23.146Z,52.95
2023-05-10T02:30:24.027Z,53.05
2023-05-10T02:35:24.180Z,53.23
2023-05-10T02:40:26.175Z,53.25
2023-05-10T02:45:31.534Z,53.66
2023-05-10T02:50:33.547Z,54.41
2023-05-10T02:55:39.007Z,54.16
2023-05-10T03:00:38.048Z,54.44
2023-05-10T03:05:36.857Z,54.65
2023-05-10T03:11:18.701Z,55.04
2023-05-10T03:16:28.372Z,54.72
2023-05-10T03:21:31.035Z,54.74
2023-05-10T03:26:30.901Z,55.26
2023-05-10T03:31:41.992Z,54.72
2023-05-10T03:36:41.100Z,55.89
2023-05-10T03:41:39.973Z,55.13
2023-05-10T03:46:38.823Z,55.46
2023-05-10T03:51:37.799Z,55.88
2023-05-10T03:56:36.953Z,55.52
2023-05-10T04:01:36.449Z,55.62
2023-05-10T04:06:36.351Z,55.89
2023-05-10T04:11:35.277Z,55.62
2023-05-10T04:16:34.059Z,55.53
2023-05-10T04:21:32.914Z,55.28
2023-05-10T04:26:32.410Z,64.11
2023-05-10T04:31:31.306Z,60.82
2023-05-10T04:36:30.420Z,57.13
2023-05-10T04:41:29.633Z,52.47
2023-05-10T04:46:28.532Z,52.51
2023-05-10T04:51:27.396Z,50.37
2023-05-10T04:56:28.059Z,54.44
2023-05-10T05:01:26.983Z,51.32
2023-05-10T05:06:26.281Z,51.70
2023-05-10T05:11:26.570Z,51.85
2023-05-10T05:16:25.729Z,52.22
2023-05-10T05:21:25.037Z,52.07
2023-05-10T05:26:24.016Z,51.01
2023-05-10T05:31:23.192Z,50.82
2023-05-10T05:36:22.344Z,51.54
2023-05-10T05:41:22.523Z,49.97
2023-05-10T05:46:21.347Z,49.71
2023-05-10T05:51:20.191Z,49.65
2023-05-10T05:56:25.089Z,50.48
2023-05-10T06:01:23.900Z,49.64
2023-05-10T06:06:22.936Z,49.08
2023-05-10T06:11:24.943Z,49.12
2023-05-10T06:16:23.787Z,48.60
2023-05-10T06:21:22.623Z,47.47
2023-05-10T06:26:21.942Z,47.11
2023-05-10T06:31:20.673Z,47.15
2023-05-10T06:36:19.621Z,46.70
2023-05-10T06:41:18.509Z,46.95
2023-05-10T06:46:17.336Z,45.65
2023-05-10T06:51:16.400Z,45.53
2023-05-10T06:56:15.281Z,45.50
2023-05-10T07:01:14.146Z,45.48
2023-05-10T07:06:21.596Z,45.32
2023-05-10T07:11:24.765Z,43.85
2023-05-10T07:16:23.809Z,45.02
2023-05-10T07:21:27.374Z,43.60
2023-05-10T07:26:26.317Z,44.47
2023-05-10T07:31:25.091Z,44.93
2023-05-10T07:36:24.021Z,44.91
2023-05-10T07:41:23.625Z,44.30
2023-05-10T07:46:22.613Z,44.53
2023-05-10T07:51:21.403Z,43.99
2023-05-10T07:56:23.760Z,44.04
2023-05-10T08:01:23.653Z,43.48
2023-05-10T08:06:22.561Z,43.26
2023-05-10T08:11:23.716Z,44.02
2023-05-10T08:16:25.817Z,43.20
2023-05-10T08:21:24.875Z,42.77
2023-05-10T08:26:23.730Z,42.54
2023-05-10T08:31:22.628Z,42.66
2023-05-10T08:36:22.961Z,42.03
2023-05-10T08:41:22.664Z,41.87
2023-05-10T08:46:23.454Z,42.65
2023-05-10T08:51:30.926Z,41.94
2023-05-10T08:56:30.762Z,42.00
2023-05-10T09:01:31.833Z,42.32
2023-05-10T09:06:30.928Z,42.86
2023-05-10T09:11:31.004Z,42.36
2023-05-10T09:16:29.979Z,41.75
2023-05-10T09:21:28.836Z,41.83
2023-05-10T09:26:27.811Z,41.48
2023-05-10T09:31:57.323Z,42.62
2023-05-10T09:36:58.633Z,41.33
2023-05-10T09:41:58.697Z,42.64
2023-05-10T09:46:58.100Z,42.13
2023-05-10T09:52:08.316Z,41.42
2023-05-10T09:57:19.460Z,42.43
2023-05-10T10:02:18.734Z,40.71
2023-05-10T10:07:24.491Z,40.18
2023-05-10T10:12:23.330Z,40.62
2023-05-10T10:17:22.790Z,41.23
2023-05-10T10:22:21.611Z,39.87
2023-05-10T10:27:20.405Z,42.47
2023-05-10T10:32:54.391Z,40.19
2023-05-10T10:37:53.324Z,41.39
2023-05-10T10:42:53.062Z,41.19
2023-05-10T10:48:21.236Z,39.78
2023-05-10T10:53:20.162Z,40.25
2023-05-10T10:58:52.209Z,41.10
2023-05-10T11:04:00.104Z,40.06
2023-05-10T11:08:59.458Z,40.55
2023-05-10T11:14:05.574Z,39.66
2023-05-10T11:19:08.724Z,40.42
2023-05-10T11:24:14.920Z,39.44
2023-05-10T11:29:14.756Z,39.19
2023-05-10T11:34:25.406Z,38.72
2023-05-10T11:39:29.148Z,39.17
2023-05-10T11:44:32.647Z,39.16
2023-05-10T11:49:31.559Z,39.46
2023-05-10T11:54:30.339Z,38.91
2023-05-10T11:59:29.113Z,40.12
2023-05-10T12:04:30.560Z,39.30
2023-05-10T12:09:42.653Z,38.76
2023-05-10T12:14:42.663Z,36.34
2023-05-10T12:19:42.550Z,37.23
2023-05-10T12:24:41.594Z,37.24
2023-05-10T12:29:45.592Z,38.12
2023-05-10T12:34:47.862Z,37.51
2023-05-10T12:39:47.299Z,38.62
2023-05-10T12:44:46.164Z,38.43
2023-05-10T12:49:45.005Z,39.18
2023-05-10T12:54:43.764Z,38.56
2023-05-10T12:59:42.609Z,37.44
2023-05-10T13:04:42.868Z,37.76
2023-05-10T13:09:44.525Z,37.51
2023-05-10T13:14:49.350Z,35.70
2023-05-10T13:19:48.253Z,38.17
2023-05-10T13:24:47.145Z,36.75
2023-05-10T13:29:47.070Z,36.78
2023-05-10T13:34:47.541Z,37.49
2023-05-10T13:39:46.354Z,36.02
2023-05-10T13:44:45.554Z,37.62
2023-05-10T13:49:44.583Z,37.84
2023-05-10T13:54:43.470Z,37.11
2023-05-10T13:59:42.543Z,37.15
2023-05-10T14:04:46.253Z,38.15
2023-05-10T14:09:45.403Z,38.41
2023-05-10T14:14:44.497Z,37.24
2023-05-10T14:19:43.441Z,37.54
2023-05-10T14:24:42.347Z,36.31
2023-05-10T14:29:41.097Z,37.43
2023-05-10T14:34:40.206Z,38.30
2023-05-10T14:39:39.295Z,37.87
2023-05-10T14:44:38.332Z,39.13
2023-05-10T14:49:37.288Z,37.57
2023-05-10T14:54:36.321Z,38.32
2023-05-10T14:59:35.414Z,38.46
2023-05-10T15:04:34.766Z,39.41
2023-05-10T15:09:34.263Z,39.09
2023-05-10T15:14:33.959Z,39.81
2023-05-10T15:19:34.322Z,39.78
2023-05-10T15:24:33.108Z,40.83
2023-05-10T15:29:32.519Z,47.02
2023-05-10T15:34:33.184Z,47.95
2023-05-10T15:39:33.383Z,49.51
2023-05-10T15:44:32.132Z,50.59
2023-05-10T15:49:31.147Z,51.58
2023-05-10T15:54:30.176Z,52.18
2023-05-10T15:59:29.419Z,52.16
2023-05-10T16:04:28.327Z,52.48
2023-05-10T16:09:27.179Z,53.30
2023-05-10T16:14:26.196Z,53.25
2023-05-10T16:19:25.479Z,52.68
2023-05-10T16:24:26.178Z,52.32
2023-05-10T16:29:25.320Z,53.18
2023-05-10T16:34:25.444Z,52.33
2023-05-10T16:39:24.511Z,51.57
2023-05-10T16:44:25.686Z,52.31
2023-05-10T16:49:26.216Z,52.27
2023-05-10T16:54:26.085Z,52.39
2023-05-10T16:59:24.889Z,52.74
2023-05-10T17:04:23.878Z,52.60
2023-05-10T17:09:22.680Z,53.08
2023-05-10T17:14:21.739Z,53.67
2023-05-10T17:19:20.798Z,53.63
2023-05-10T17:24:19.559Z,53.04
2023-05-10T17:29:18.324Z,54.33
2023-05-10T17:34:17.385Z,53.66
2023-05-10T17:39:16.164Z,53.54
2023-05-10T17:44:15.786Z,53.51
2023-05-10T17:49:15.338Z,53.59
2023-05-10T17:54:14.950Z,54.63
2023-05-10T17:59:13.823Z,54.76
2023-05-10T18:04:12.704Z,54.63
2023-05-10T18:09:11.835Z,54.98
2023-05-10T18:14:10.807Z,54.62
2023-05-10T18:19:10.153Z,55.79
2023-05-10T18:24:09.272Z,55.47
2023-05-10T18:29:08.502Z,57.82
2023-05-10T18:34:07.464Z,58.68
2023-05-10T18:39:06.270Z,59.03
2023-05-10T18:44:05.178Z,59.51
2023-05-10T18:49:04.014Z,59.48
2023-05-10T18:54:02.902Z,60.54
2023-05-10T18:59:01.683Z,61.09
2023-05-10T19:04:00.673Z,62.09
2023-05-10T19:09:00.004Z,62.18
2023-05-10T19:13:58.829Z,61.47
2023-05-10T19:18:58.038Z,62.48
2023-05-10T19:23:57.856Z,63.01
2023-05-10T19:28:57.677Z,63.23
2023-05-10T19:33:59.950Z,63.55
2023-05-10T19:38:59.741Z,63.22
2023-05-10T19:43:59.102Z,64.57
2023-05-10T19:49:02.078Z,65.88
2023-05-10T19:54:01.194Z,65.45
2023-05-10T19:59:00.184Z,67.51
2023-05-10T20:03:59.042Z,67.76
2023-05-10T20:08:57.835Z,68.11
2023-05-10T20:13:57.054Z,68.74
2023-05-10T20:18:55.983Z,68.69
2023-05-10T20:23:54.807Z,71.39
2023-05-10T20:28:53.587Z,73.33
2023-05-10T20:33:52.387Z,72.73
2023-05-10T20:38:51.161Z,75.13
2023-05-10T20:43:49.963Z,73.82
2023-05-10T20:48:48.897Z,71.86
2023-05-10T20:53:47.660Z,73.80
2023-05-10T20:58:46.437Z,75.78
2023-05-10T21:03:45.400Z,76.23
2023-05-10T21:08:44.290Z,76.14
2023-05-10T21:13:43.022Z,76.67
2023-05-10T21:18:41.865Z,74.29
2023-05-10T21:23:42.303Z,74.00
2023-05-10T21:28:42.410Z,74.72
2023-05-10T21:33:41.366Z,74.50
2023-05-10T21:38:40.980Z,77.20
2023-05-10T21:43:39.799Z,77.15
2023-05-10T21:48:38.748Z,75.92
2023-05-10T21:53:39.091Z,76.66
2023-05-10T21:58:38.144Z,77.33
2023-05-10T22:03:36.933Z,77.75
2023-05-10T22:08:35.700Z,79.68
2023-05-10T22:13:34.420Z,79.67
2023-05-10T22:18:33.394Z,78.45
2023-05-10T22:23:32.192Z,79.86
2023-05-10T22:28:30.984Z,79.93
2023-05-10T22:33:30.897Z,81.29
2023-05-10T22:38:29.748Z,80.80
2023-05-10T22:43:28.475Z,81.23
2023-05-10T22:48:28.829Z,79.22
2023-05-10T22:53:27.684Z,81.32
2023-05-10T22:58:26.721Z,79.88
2023-05-10T23:03:25.931Z,79.88
2023-05-10T23:08:24.725Z,82.13
2023-05-10T23:13:24.625Z,80.32
2023-05-10T23:18:23.497Z,79.81
2023-05-10T23:23:22.796Z,81.26
2023-05-10T23:28:21.692Z,80.24
2023-05-10T23:33:20.391Z,80.63
2023-05-10T23:38:19.331Z,82.17
2023-05-10T23:43:19.895Z,83.76
2023-05-10T23:48:18.759Z,83.73
2023-05-10T23:53:17.491Z,84.18
2023-05-10T23:58:16.433Z,83.99
